Terminal Aerodrome Forecast
Issued by NWS Charleston, WV

Current Version | Previous Version | Graphics & Text | Print | Product List | Glossary On
Versions: 1 2 3 4 5 6 7 8 9 10 11 12 13 14 15 16 17 18 19 20 21 22 23 24
000
FTUS41 KRLX 022300
TAFBKW
TAF
KBKW 022321Z 0300/0324 VRB03KT P6SM SCT250
     FM031100 13006KT 6SM BR BKN090
     FM031200 13006KT 5SM BR BKN020
     FM031400 14008KT 3SM BR OVC010
     FM031700 14009KT 2SM -RA BR OVC008
     FM032200 15012G19KT 1 1/2SM -RA BR OVC008=

USA.gov is the U.S. government's official web portal to all federal, state and local government web resources and services.